createdAt,value
2019-02-06T00:01:10.718Z,0.79
2019-02-06T00:03:41.325Z,0.77
2019-02-06T00:06:11.986Z,0.74
2019-02-06T00:08:43.718Z,0.80
2019-02-06T00:11:14.681Z,0.81
2019-02-06T00:13:45.378Z,0.66
2019-02-06T00:16:16.158Z,0.64
2019-02-06T00:18:46.715Z,0.64
2019-02-06T00:21:20.525Z,0.60
2019-02-06T00:23:49.818Z,0.62
2019-02-06T00:26:20.443Z,0.67
2019-02-06T00:28:51.026Z,0.73
2019-02-06T00:31:21.655Z,0.76
2019-02-06T00:33:52.213Z,0.79
2019-02-06T00:36:22.681Z,0.82
2019-02-06T00:38:53.496Z,0.82
2019-02-06T00:41:24.096Z,0.82
2019-02-06T00:43:55.190Z,0.82
2019-02-06T00:46:25.901Z,0.75
2019-02-06T00:48:56.452Z,0.77
2019-02-06T00:51:26.951Z,0.76
2019-02-06T00:53:57.410Z,0.76
2019-02-06T00:56:28.044Z,0.72
2019-02-06T00:58:58.658Z,0.75
2019-02-06T01:01:29.256Z,0.67
2019-02-06T01:03:59.864Z,0.63
2019-02-06T01:06:31.020Z,0.62
2019-02-06T01:09:01.598Z,0.62
2019-02-06T01:11:32.457Z,0.55
2019-02-06T01:14:02.909Z,0.58
2019-02-06T01:16:33.572Z,0.63
2019-02-06T01:19:04.321Z,0.66
2019-02-06T01:21:34.876Z,0.67
2019-02-06T01:24:06.015Z,0.69
2019-02-06T01:26:36.604Z,0.75
2019-02-06T01:29:07.140Z,0.79
2019-02-06T01:31:37.763Z,0.82
2019-02-06T01:34:08.643Z,0.79
2019-02-06T01:36:39.481Z,0.81
2019-02-06T01:39:13.127Z,0.86
2019-02-06T01:41:43.701Z,0.90
2019-02-06T01:44:14.282Z,0.83
2019-02-06T01:46:44.838Z,0.85
2019-02-06T01:49:15.457Z,0.82
2019-02-06T01:51:46.079Z,0.82
2019-02-06T01:54:16.696Z,0.83
2019-02-06T01:56:47.181Z,0.86
2019-02-06T01:59:17.767Z,0.89
2019-02-06T02:01:48.602Z,0.87
2019-02-06T02:04:19.471Z,0.85
2019-02-06T02:06:50.209Z,0.87
2019-02-06T02:09:21.171Z,0.89
2019-02-06T02:11:51.825Z,0.86
2019-02-06T02:14:22.246Z,0.88
2019-02-06T02:16:52.855Z,0.89
2019-02-06T02:19:23.980Z,0.87
2019-02-06T02:21:54.499Z,0.87
2019-02-06T02:24:25.016Z,0.87
2019-02-06T02:26:55.689Z,0.90
2019-02-06T02:29:26.565Z,0.78
2019-02-06T02:31:57.325Z,0.80
2019-02-06T02:34:28.011Z,0.85
2019-02-06T02:36:58.775Z,0.87
2019-02-06T02:39:29.313Z,0.79
2019-02-06T02:42:00.249Z,0.79
2019-02-06T02:44:30.838Z,0.78
2019-02-06T02:47:01.389Z,0.76
2019-02-06T02:49:31.835Z,0.71
2019-02-06T02:52:02.555Z,0.73
2019-02-06T02:54:33.105Z,0.76
2019-02-06T02:57:03.880Z,0.78
2019-02-06T02:59:34.420Z,0.81
2019-02-06T03:02:24.016Z,0.81
2019-02-06T03:05:01.138Z,0.76
2019-02-06T03:07:31.670Z,0.82
2019-02-06T03:10:02.309Z,0.83
2019-02-06T03:12:32.793Z,0.83
2019-02-06T03:15:03.521Z,0.84
2019-02-06T03:17:34.021Z,0.80
2019-02-06T03:20:05.655Z,0.80
2019-02-06T03:22:36.773Z,0.83
2019-02-06T03:25:09.126Z,0.86
2019-02-06T03:27:39.764Z,0.87
2019-02-06T03:30:13.771Z,0.86
2019-02-06T03:32:44.421Z,0.85
2019-02-06T03:35:15.383Z,0.82
2019-02-06T03:37:46.088Z,0.84
2019-02-06T03:40:17.118Z,0.77
2019-02-06T03:42:47.704Z,0.84
2019-02-06T03:45:18.641Z,0.84
2019-02-06T03:47:49.329Z,0.76
2019-02-06T03:50:20.947Z,0.78
2019-02-06T03:52:51.647Z,0.75
2019-02-06T03:55:22.353Z,0.71
2019-02-06T03:57:52.927Z,0.71
2019-02-06T04:00:23.659Z,0.70
2019-02-06T04:02:54.151Z,0.71
2019-02-06T04:05:24.959Z,0.66
2019-02-06T04:07:55.601Z,0.71
2019-02-06T04:10:26.162Z,0.71
2019-02-06T04:12:57.117Z,0.74
2019-02-06T04:15:27.815Z,0.78
2019-02-06T04:17:58.358Z,0.77
2019-02-06T04:20:28.862Z,0.68
2019-02-06T04:22:59.402Z,0.65
2019-02-06T04:25:29.936Z,0.67
2019-02-06T04:28:00.506Z,0.69
2019-02-06T04:30:31.100Z,0.68
2019-02-06T04:33:01.672Z,0.71
2019-02-06T04:35:32.170Z,0.71
2019-02-06T04:38:02.738Z,0.74
2019-02-06T04:40:33.537Z,0.78
2019-02-06T04:43:04.074Z,0.84
2019-02-06T04:45:34.805Z,0.82
2019-02-06T04:48:05.606Z,0.77
2019-02-06T04:50:36.385Z,0.74
2019-02-06T04:53:07.031Z,0.80
2019-02-06T04:55:37.569Z,0.84
2019-02-06T04:58:08.181Z,0.89
2019-02-06T05:00:38.798Z,0.91
2019-02-06T05:03:09.527Z,0.89
2019-02-06T05:05:40.092Z,0.88
2019-02-06T05:08:10.939Z,0.88
2019-02-06T05:10:41.563Z,0.88
2019-02-06T05:13:12.121Z,0.82
2019-02-06T05:15:42.712Z,0.84
2019-02-06T05:18:13.277Z,0.83
2019-02-06T05:20:43.914Z,0.81
2019-02-06T05:23:14.589Z,0.77
2019-02-06T05:25:45.143Z,0.68
2019-02-06T05:28:17.987Z,0.70
2019-02-06T05:30:47.920Z,0.72
2019-02-06T05:33:18.511Z,0.74
2019-02-06T05:35:49.494Z,0.73
2019-02-06T05:38:20.030Z,0.73
2019-02-06T05:40:50.566Z,0.71
2019-02-06T05:43:21.110Z,0.70
2019-02-06T05:45:51.553Z,0.53
2019-02-06T05:48:22.128Z,0.60
2019-02-06T05:50:53.645Z,0.66
2019-02-06T05:53:23.979Z,0.71
2019-02-06T05:55:55.047Z,0.73
2019-02-06T05:58:25.742Z,0.65
2019-02-06T06:00:56.428Z,0.53
2019-02-06T06:03:27.291Z,0.54
2019-02-06T06:05:57.971Z,0.59
2019-02-06T06:08:28.591Z,0.63
2019-02-06T06:10:59.075Z,0.65
2019-02-06T06:13:29.719Z,0.68
2019-02-06T06:16:00.355Z,0.56
2019-02-06T06:18:32.046Z,0.58
2019-02-06T06:21:02.683Z,0.67
2019-02-06T06:23:33.460Z,0.72
2019-02-06T06:26:04.144Z,0.68
2019-02-06T06:28:34.731Z,0.64
2019-02-06T06:31:05.459Z,0.56
2019-02-06T06:33:36.412Z,0.57
2019-02-06T06:36:07.573Z,0.58
2019-02-06T06:38:38.107Z,0.65
2019-02-06T06:41:08.701Z,0.73
2019-02-06T06:43:39.220Z,0.69
2019-02-06T06:46:09.659Z,0.65
2019-02-06T06:48:40.139Z,0.75
2019-02-06T06:51:10.607Z,0.72
2019-02-06T06:53:41.209Z,0.69
2019-02-06T06:56:12.063Z,0.76
2019-02-06T06:58:42.910Z,0.85
2019-02-06T07:01:13.815Z,0.86
2019-02-06T07:03:44.798Z,0.94
2019-02-06T07:06:15.486Z,1.00
2019-02-06T07:08:46.018Z,0.99
2019-02-06T07:11:16.627Z,1.03
2019-02-06T07:13:47.230Z,1.08
2019-02-06T07:16:17.984Z,1.18
2019-02-06T07:18:48.403Z,1.18
2019-02-06T07:21:19.084Z,1.07
2019-02-06T07:23:49.546Z,1.25
2019-02-06T07:26:20.111Z,1.35
2019-02-06T07:28:50.802Z,1.45
2019-02-06T07:31:21.434Z,1.56
2019-02-06T07:33:52.301Z,1.64
2019-02-06T07:36:22.887Z,1.71
2019-02-06T07:38:53.466Z,1.77
2019-02-06T07:41:23.985Z,1.85
2019-02-06T07:43:54.926Z,1.91
2019-02-06T07:46:25.394Z,1.94
2019-02-06T07:48:55.784Z,2.01
2019-02-06T07:51:26.388Z,2.04
2019-02-06T07:53:56.862Z,2.11
2019-02-06T07:56:27.546Z,2.25
2019-02-06T07:58:58.180Z,2.26
2019-02-06T08:01:28.772Z,2.21
2019-02-06T08:03:59.214Z,2.31
2019-02-06T08:06:29.917Z,2.40
2019-02-06T08:09:00.587Z,2.47
2019-02-06T08:11:31.212Z,2.51
2019-02-06T08:14:01.811Z,2.62
2019-02-06T08:16:32.289Z,2.73
2019-02-06T08:19:03.509Z,2.66
2019-02-06T08:21:34.076Z,2.90
2019-02-06T08:24:05.380Z,3.02
2019-02-06T08:26:35.941Z,3.13
2019-02-06T08:29:06.621Z,3.21
2019-02-06T08:31:37.264Z,3.23
2019-02-06T08:34:07.735Z,3.30
2019-02-06T08:36:38.380Z,3.42
2019-02-06T08:39:10.508Z,3.55
2019-02-06T08:41:40.917Z,3.66
2019-02-06T08:44:11.431Z,3.75
2019-02-06T08:46:42.153Z,3.89
2019-02-06T08:49:12.800Z,3.94
2019-02-06T08:51:43.546Z,3.98
2019-02-06T08:54:14.105Z,4.04
2019-02-06T08:56:44.824Z,3.65
2019-02-06T08:59:15.502Z,3.66
2019-02-06T09:01:46.052Z,3.71
2019-02-06T09:04:16.588Z,3.88
2019-02-06T09:06:47.766Z,4.12
2019-02-06T09:09:18.382Z,4.18
2019-02-06T09:11:48.959Z,4.23
2019-02-06T09:14:19.892Z,4.23
2019-02-06T09:16:50.493Z,4.19
2019-02-06T09:19:21.193Z,4.21
2019-02-06T09:21:51.848Z,3.61
2019-02-06T09:24:22.317Z,3.97
2019-02-06T09:26:52.960Z,4.01
2019-02-06T09:29:23.609Z,4.37
2019-02-06T09:31:54.565Z,4.22
2019-02-06T09:34:25.224Z,4.25
2019-02-06T09:36:55.904Z,4.48
2019-02-06T09:39:26.357Z,4.66
2019-02-06T09:41:56.999Z,4.83
2019-02-06T09:44:27.678Z,5.01
2019-02-06T09:46:58.498Z,5.06
2019-02-06T09:49:29.061Z,5.13
2019-02-06T09:51:59.892Z,5.32
2019-02-06T09:54:30.412Z,5.16
2019-02-06T09:57:01.086Z,5.40
2019-02-06T09:59:31.679Z,4.52
2019-02-06T10:02:02.314Z,4.63
2019-02-06T10:04:32.971Z,5.13
2019-02-06T10:07:03.472Z,4.60
2019-02-06T10:09:33.930Z,3.92
2019-02-06T10:12:04.426Z,4.43
2019-02-06T10:14:35.230Z,4.57
2019-02-06T10:17:05.821Z,5.24
2019-02-06T10:19:36.340Z,5.32
2019-02-06T10:22:07.003Z,5.24
2019-02-06T10:24:37.978Z,5.20
2019-02-06T10:27:08.623Z,4.67
2019-02-06T10:29:39.221Z,5.12
2019-02-06T10:32:09.984Z,6.08
2019-02-06T10:34:40.564Z,6.29
2019-02-06T10:37:11.211Z,5.32
2019-02-06T10:39:41.636Z,4.74
2019-02-06T10:42:12.406Z,5.00
2019-02-06T10:44:43.146Z,4.89
2019-02-06T10:47:13.757Z,6.98
2019-02-06T10:49:44.352Z,6.32
2019-02-06T10:52:14.817Z,5.72
2019-02-06T10:54:45.403Z,5.90
2019-02-06T10:57:16.076Z,6.08
2019-02-06T10:59:46.536Z,6.51
2019-02-06T11:02:17.160Z,8.46
2019-02-06T11:04:48.607Z,10.68
2019-02-06T11:07:19.085Z,12.57
2019-02-06T11:09:49.947Z,11.32
2019-02-06T11:12:20.485Z,11.45
2019-02-06T11:14:51.366Z,11.55
2019-02-06T11:17:21.855Z,9.31
2019-02-06T11:19:52.694Z,8.34
2019-02-06T11:22:23.190Z,7.72
2019-02-06T11:24:53.829Z,10.48
2019-02-06T11:27:24.470Z,8.84
2019-02-06T11:29:55.165Z,9.67
2019-02-06T11:32:25.690Z,10.92
2019-02-06T11:34:56.217Z,8.59
2019-02-06T11:37:27.087Z,9.33
2019-02-06T11:39:58.477Z,10.22
2019-02-06T11:42:29.053Z,9.88
2019-02-06T11:44:59.633Z,11.88
2019-02-06T11:47:30.218Z,12.10
2019-02-06T11:50:02.217Z,11.25
2019-02-06T11:52:32.748Z,9.33
2019-02-06T11:55:03.293Z,11.07
2019-02-06T11:57:33.910Z,9.09
2019-02-06T12:00:04.903Z,7.59
2019-02-06T12:02:37.282Z,8.10
2019-02-06T12:05:08.784Z,8.92
2019-02-06T12:07:39.342Z,9.11
2019-02-06T12:10:14.440Z,8.37
2019-02-06T12:12:44.984Z,8.14
2019-02-06T12:15:18.297Z,9.31
2019-02-06T12:17:48.929Z,8.09
2019-02-06T12:20:21.316Z,8.73
2019-02-06T12:22:52.006Z,9.95
2019-02-06T12:25:22.615Z,9.05
2019-02-06T12:27:53.359Z,7.56
2019-02-06T12:30:28.513Z,8.72
2019-02-06T12:32:59.104Z,7.57
2019-02-06T12:35:29.705Z,5.76
2019-02-06T12:38:00.321Z,5.21
2019-02-06T12:40:30.968Z,4.91
2019-02-06T12:43:01.531Z,4.53
2019-02-06T12:45:32.209Z,5.18
2019-02-06T12:48:02.846Z,5.04
2019-02-06T12:50:33.429Z,4.57
2019-02-06T12:53:03.983Z,4.41
2019-02-06T12:55:36.637Z,4.21
2019-02-06T12:58:08.836Z,4.71
2019-02-06T13:00:41.646Z,4.29
2019-02-06T13:03:12.395Z,3.87
2019-02-06T13:05:43.829Z,3.75
2019-02-06T13:08:17.219Z,3.73
2019-02-06T13:10:46.793Z,3.81
2019-02-06T13:13:17.676Z,4.00
2019-02-06T13:15:48.402Z,3.96
2019-02-06T13:18:18.850Z,3.90
2019-02-06T13:20:51.423Z,4.09
2019-02-06T13:23:22.380Z,4.25
2019-02-06T13:25:53.089Z,3.81
2019-02-06T13:28:23.675Z,3.05
2019-02-06T13:30:54.177Z,2.98
2019-02-06T13:33:24.602Z,2.99
2019-02-06T13:35:55.232Z,3.03
2019-02-06T13:38:25.926Z,2.92
2019-02-06T13:40:56.864Z,2.91
2019-02-06T13:43:27.448Z,2.73
2019-02-06T13:46:04.514Z,2.68
2019-02-06T13:48:35.057Z,2.75
2019-02-06T13:51:16.535Z,2.69
2019-02-06T13:53:42.452Z,2.58
2019-02-06T13:56:13.296Z,2.70
2019-02-06T13:58:43.866Z,2.66
2019-02-06T14:01:25.442Z,2.65
2019-02-06T14:03:47.093Z,2.46
2019-02-06T14:06:17.787Z,2.52
2019-02-06T14:08:48.351Z,2.44
2019-02-06T14:11:19.469Z,2.33
2019-02-06T14:13:53.623Z,2.30
2019-02-06T14:16:26.998Z,2.21
2019-02-06T14:18:56.447Z,2.31
2019-02-06T14:21:27.374Z,2.18
2019-02-06T14:24:23.101Z,2.25
2019-02-06T14:27:11.734Z,2.17
2019-02-06T14:30:40.118Z,2.03
2019-02-06T14:33:57.935Z,2.02
2019-02-06T14:37:14.711Z,2.03
2019-02-06T14:40:10.006Z,1.98
2019-02-06T14:43:40.676Z,1.89
2019-02-06T14:46:50.983Z,1.91
2019-02-06T14:50:02.424Z,1.70
2019-02-06T14:53:23.878Z,1.60
2019-02-06T14:56:20.787Z,1.56
2019-02-06T14:59:49.204Z,1.58
2019-02-06T15:03:08.310Z,1.55
2019-02-06T15:06:34.915Z,1.48
2019-02-06T15:09:51.808Z,1.41
2019-02-06T15:13:19.205Z,1.48
2019-02-06T15:16:27.016Z,1.27
2019-02-06T15:19:36.566Z,1.22
2019-02-06T15:22:50.429Z,1.18
2019-02-06T15:25:50.351Z,1.17
2019-02-06T15:29:10.860Z,1.07
2019-02-06T15:32:25.198Z,1.02
2019-02-06T15:35:45.060Z,1.08
2019-02-06T15:39:12.948Z,0.96
2019-02-06T15:42:43.367Z,0.80
2019-02-06T15:45:48.559Z,0.73
2019-02-06T15:48:52.191Z,0.61
2019-02-06T15:52:05.131Z,0.59
2019-02-06T15:55:08.933Z,0.48
2019-02-06T15:58:20.914Z,0.37
2019-02-06T16:01:25.205Z,0.42
2019-02-06T16:04:45.825Z,0.56
2019-02-06T16:08:02.609Z,0.20
2019-02-06T16:11:41.666Z,0.20
2019-02-06T16:14:39.911Z,0.02
2019-02-06T16:18:00.663Z,-0.02
2019-02-06T16:21:12.736Z,-0.12
2019-02-06T16:24:32.552Z,-0.20
2019-02-06T16:27:54.599Z,-0.23
2019-02-06T16:31:04.627Z,-0.36
2019-02-06T16:34:32.081Z,-0.36
2019-02-06T16:38:00.128Z,-0.38
2019-02-06T16:40:58.698Z,-0.40
2019-02-06T16:44:31.168Z,-0.53
2019-02-06T16:47:45.276Z,-0.53
2019-02-06T16:50:30.272Z,-0.55
2019-02-06T16:53:58.262Z,-0.50
2019-02-06T16:57:26.277Z,-0.55
2019-02-06T17:00:54.225Z,-0.59
2019-02-06T17:03:56.280Z,-0.64
2019-02-06T17:06:58.811Z,-0.67
2019-02-06T17:10:28.069Z,-0.75
2019-02-06T17:13:56.056Z,-0.74
2019-02-06T17:17:15.647Z,-0.78
2019-02-06T17:20:43.594Z,-0.71
2019-02-06T17:24:02.617Z,-0.71
2019-02-06T17:27:22.308Z,-0.86
2019-02-06T17:30:40.885Z,-1.00
2019-02-06T17:34:11.109Z,-1.12
2019-02-06T17:37:14.302Z,-1.22
2019-02-06T17:40:34.466Z,-1.29
2019-02-06T17:43:40.561Z,-1.30
2019-02-06T17:46:53.995Z,-1.23
2019-02-06T17:50:18.640Z,-1.15
2019-02-06T17:53:32.630Z,-1.16
2019-02-06T17:56:06.770Z,-1.12
2019-02-06T17:58:42.366Z,-1.14
2019-02-06T18:01:52.429Z,-1.22
2019-02-06T18:04:31.777Z,-1.17
2019-02-06T18:07:06.781Z,-1.07
2019-02-06T18:09:41.404Z,-1.04
2019-02-06T18:12:13.687Z,-1.06
2019-02-06T18:14:45.501Z,-1.22
2019-02-06T18:17:25.969Z,-1.25
2019-02-06T18:20:07.541Z,-1.32
2019-02-06T18:22:42.902Z,-1.40
2019-02-06T18:25:14.130Z,-1.48
2019-02-06T18:27:48.421Z,-1.54
2019-02-06T18:30:25.441Z,-1.58
2019-02-06T18:33:01.641Z,-1.60
2019-02-06T18:35:32.797Z,-1.60
2019-02-06T18:38:07.615Z,-1.54
2019-02-06T18:40:40.640Z,-1.56
2019-02-06T18:43:14.600Z,-1.45
2019-02-06T18:45:51.351Z,-1.54
2019-02-06T18:48:26.674Z,-1.61
2019-02-06T18:51:01.538Z,-1.76
2019-02-06T18:53:33.391Z,-1.84
2019-02-06T18:56:12.205Z,-1.84
2019-02-06T18:58:44.078Z,-1.88
2019-02-06T19:01:17.811Z,-1.94
2019-02-06T19:03:52.376Z,-2.01
2019-02-06T19:06:27.075Z,-2.02
2019-02-06T19:08:59.391Z,-2.07
2019-02-06T19:11:33.263Z,-2.11
2019-02-06T19:14:06.617Z,-2.11
2019-02-06T19:16:40.762Z,-2.07
2019-02-06T19:19:12.768Z,-2.01
2019-02-06T19:21:43.500Z,-2.05
2019-02-06T19:24:18.776Z,-2.07
2019-02-06T19:26:55.597Z,-2.15
2019-02-06T19:29:29.062Z,-2.19
2019-02-06T19:32:02.605Z,-2.25
2019-02-06T19:34:33.247Z,-2.31
2019-02-06T19:37:04.860Z,-2.35
2019-02-06T19:39:39.595Z,-2.34
2019-02-06T19:42:22.012Z,-2.40
2019-02-06T19:44:54.021Z,-2.41
2019-02-06T19:47:30.805Z,-2.42
2019-02-06T19:50:01.627Z,-2.44
2019-02-06T19:52:35.881Z,-2.44
2019-02-06T19:55:08.426Z,-2.43
2019-02-06T19:57:40.381Z,-2.44
2019-02-06T20:00:21.547Z,-2.38
2019-02-06T20:02:54.109Z,-2.38
2019-02-06T20:05:26.071Z,-2.38
2019-02-06T20:08:06.928Z,-2.38
2019-02-06T20:10:45.097Z,-2.37
2019-02-06T20:13:19.488Z,-2.37
2019-02-06T20:15:53.827Z,-2.39
2019-02-06T20:18:24.374Z,-2.48
2019-02-06T20:20:57.496Z,-2.51
2019-02-06T20:23:31.241Z,-2.53
2019-02-06T20:26:08.606Z,-2.52
2019-02-06T20:28:45.226Z,-2.54
2019-02-06T20:31:19.068Z,-2.57
2019-02-06T20:33:56.640Z,-2.55
2019-02-06T20:36:36.254Z,-2.50
2019-02-06T20:39:16.187Z,-2.63
2019-02-06T20:41:46.882Z,-2.65
2019-02-06T20:44:17.623Z,-2.69
2019-02-06T20:46:58.118Z,-2.70
2019-02-06T20:49:37.708Z,-2.76
2019-02-06T20:52:11.524Z,-2.84
2019-02-06T20:54:46.998Z,-2.92
2019-02-06T20:57:17.960Z,-2.96
2019-02-06T20:59:48.626Z,-2.98
2019-02-06T21:02:23.369Z,-3.03
2019-02-06T21:04:55.199Z,-3.03
2019-02-06T21:07:30.733Z,-3.04
2019-02-06T21:10:04.078Z,-3.04
2019-02-06T21:12:38.129Z,-3.07
2019-02-06T21:15:09.460Z,-3.08
2019-02-06T21:17:42.404Z,-3.12
2019-02-06T21:20:17.353Z,-3.12
2019-02-06T21:23:04.643Z,-3.12
2019-02-06T21:25:35.473Z,-3.14
2019-02-06T21:28:13.870Z,-3.10
2019-02-06T21:30:48.903Z,-3.09
2019-02-06T21:33:24.689Z,-3.12
2019-02-06T21:35:59.126Z,-3.12
2019-02-06T21:38:33.935Z,-3.10
2019-02-06T21:41:05.936Z,-3.10
2019-02-06T21:43:44.179Z,-3.11
2019-02-06T21:46:14.062Z,-3.13
2019-02-06T21:48:46.863Z,-3.14
2019-02-06T21:51:21.092Z,-3.13
2019-02-06T21:53:52.253Z,-3.16
2019-02-06T21:56:23.152Z,-3.16
2019-02-06T21:58:53.888Z,-3.17
2019-02-06T22:01:24.471Z,-3.16
2019-02-06T22:03:54.976Z,-3.17
2019-02-06T22:06:25.599Z,-3.16
2019-02-06T22:08:56.318Z,-3.19
2019-02-06T22:11:27.115Z,-3.18
2019-02-06T22:13:57.574Z,-3.16
2019-02-06T22:16:28.184Z,-3.15
2019-02-06T22:18:58.783Z,-3.17
2019-02-06T22:21:29.296Z,-3.17
2019-02-06T22:24:00.074Z,-3.18
2019-02-06T22:26:30.767Z,-3.22
2019-02-06T22:29:01.344Z,-3.20
2019-02-06T22:31:31.873Z,-3.20
2019-02-06T22:34:02.484Z,-3.23
2019-02-06T22:36:33.603Z,-3.22
2019-02-06T22:39:06.258Z,-3.23
2019-02-06T22:41:36.903Z,-3.31
2019-02-06T22:44:07.413Z,-3.32
2019-02-06T22:46:38.010Z,-3.34
2019-02-06T22:49:08.629Z,-3.35
2019-02-06T22:51:39.273Z,-3.36
2019-02-06T22:54:09.996Z,-3.39
2019-02-06T22:56:41.229Z,-3.40
2019-02-06T22:59:12.151Z,-3.42
2019-02-06T23:01:51.548Z,-3.42
2019-02-06T23:04:22.073Z,-3.47
2019-02-06T23:06:52.916Z,-3.47
2019-02-06T23:09:23.630Z,-3.47
2019-02-06T23:11:55.808Z,-3.46
2019-02-06T23:14:26.941Z,-3.43
2019-02-06T23:16:57.759Z,-3.40
2019-02-06T23:19:28.540Z,-3.40
2019-02-06T23:21:59.082Z,-3.41
2019-02-06T23:24:29.837Z,-3.43
2019-02-06T23:27:00.539Z,-3.44
2019-02-06T23:29:31.310Z,-3.54
2019-02-06T23:32:02.109Z,-3.58
2019-02-06T23:34:32.700Z,-3.61
2019-02-06T23:37:03.221Z,-3.69
2019-02-06T23:39:34.259Z,-3.72
2019-02-06T23:42:06.222Z,-3.76
2019-02-06T23:44:36.773Z,-3.81
2019-02-06T23:47:07.485Z,-3.78
2019-02-06T23:49:38.110Z,-3.79
2019-02-06T23:52:08.822Z,-3.84
2019-02-06T23:54:40.160Z,-3.82
2019-02-06T23:57:10.868Z,-3.72
2019-02-06T23:59:41.566Z,-3.71
